Time;durP1;ratioP1;P1;durP2;ratioP2;P2;SDS_P1;SDS_P2;PMS_P1;PMS_P2;Temp;Humidity;BMP_temperature;BMP_pressure;BME280_temperature;BME280_humidity;BME280_pressure;Samples;Min_cycle;Max_cycle;Signal;HPM_P1;HPM_P2
2021/08/17 00:00:43;;;;;;;1.75;1.52;;;27.00;54.50;;;;;;5087890;28;20054;-69
2021/08/17 00:03:10;;;;;;;1.83;1.73;;;27.00;54.50;;;;;;5088428;28;20094;-70
2021/08/17 00:05:39;;;;;;;2.28;1.88;;;27.00;54.40;;;;;;5087497;28;20040;-70
2021/08/17 00:08:06;;;;;;;2.25;2.00;;;26.90;54.40;;;;;;5087711;28;20564;-70
2021/08/17 00:10:34;;;;;;;1.75;1.40;;;26.90;54.30;;;;;;5085703;28;20388;-70
2021/08/17 00:13:01;;;;;;;1.65;1.55;;;26.90;54.30;;;;;;5087096;28;20046;-70
2021/08/17 00:15:29;;;;;;;1.92;1.73;;;26.90;54.30;;;;;;5086738;28;20054;-70
2021/08/17 00:17:56;;;;;;;2.20;2.00;;;26.90;54.30;;;;;;5087101;28;20078;-70
2021/08/17 00:20:24;;;;;;;1.85;1.73;;;26.90;54.30;;;;;;5085848;28;20062;-69
2021/08/17 00:22:51;;;;;;;1.95;1.85;;;26.90;54.40;;;;;;5087769;28;20121;-70
2021/08/17 00:25:18;;;;;;;4.10;2.20;;;26.90;54.40;;;;;;5086442;28;20044;-70
2021/08/17 00:27:46;;;;;;;1.83;1.73;;;26.90;54.50;;;;;;5087560;28;20048;-70
2021/08/17 00:30:14;;;;;;;2.28;1.80;;;26.90;54.40;;;;;;5086635;28;20052;-70
2021/08/17 00:32:41;;;;;;;2.50;1.70;;;26.90;54.50;;;;;;5086735;28;20502;-70
2021/08/17 00:35:09;;;;;;;2.55;2.13;;;26.80;54.40;;;;;;5087089;28;20083;-70
2021/08/17 00:37:36;;;;;;;1.83;1.73;;;26.90;54.50;;;;;;5086524;28;20132;-70
2021/08/17 00:40:04;;;;;;;1.67;1.58;;;26.80;55.00;;;;;;5087551;28;20044;-70
2021/08/17 00:42:43;;;;;;;1.88;1.77;;;26.80;54.40;;;;;;5085105;28;20048;-70
2021/08/17 00:45:25;;;;;;;1.52;1.45;;;26.80;54.40;;;;;;5086781;28;20409;-70
2021/08/17 00:47:53;;;;;;;1.90;1.80;;;26.80;54.40;;;;;;5087246;28;20389;-71
2021/08/17 00:50:23;;;;;;;1.55;1.45;;;26.80;54.50;;;;;;5086653;28;20048;-70
2021/08/17 00:52:51;;;;;;;1.92;1.73;;;26.80;54.40;;;;;;5087562;28;20446;-70
2021/08/17 00:55:18;;;;;;;1.70;1.60;;;26.80;54.50;;;;;;5086872;28;20139;-69
2021/08/17 00:57:48;;;;;;;1.98;1.73;;;26.80;54.50;;;;;;5086693;28;20048;-71
2021/08/17 01:00:17;;;;;;;1.55;1.45;;;26.80;54.50;;;;;;5085015;28;20115;-71
2021/08/17 01:02:46;;;;;;;1.55;1.50;;;26.80;54.50;;;;;;5086217;28;20059;-70
2021/08/17 01:05:16;;;;;;;2.03;1.90;;;26.80;54.50;;;;;;5086794;28;20653;-70
2021/08/17 01:07:43;;;;;;;1.48;1.38;;;26.80;54.50;;;;;;5086298;28;20134;-71
2021/08/17 01:10:12;;;;;;;2.15;1.60;;;26.80;54.50;;;;;;5086435;28;20121;-70
2021/08/17 01:12:40;;;;;;;1.50;1.42;;;26.80;54.50;;;;;;5084538;28;20048;-70
2021/08/17 01:15:14;;;;;;;1.48;1.38;;;26.80;54.50;;;;;;5085961;28;20040;-70
2021/08/17 01:17:42;;;;;;;1.02;1.02;;;26.80;54.50;;;;;;5086235;28;20265;-73
2021/08/17 01:20:13;;;;;;;1.67;1.58;;;26.80;54.50;;;;;;5086112;28;20050;-70
2021/08/17 01:22:42;;;;;;;1.50;1.40;;;26.80;54.60;;;;;;5086339;28;20043;-70
2021/08/17 01:25:10;;;;;;;3.58;1.92;;;26.80;54.60;;;;;;5086103;28;20044;-70
2021/08/17 01:27:40;;;;;;;1.90;1.80;;;26.80;54.50;;;;;;5085587;28;20139;-70
2021/08/17 01:30:08;;;;;;;1.70;1.60;;;26.80;54.50;;;;;;5085940;28;20043;-70
2021/08/17 01:32:36;;;;;;;1.63;1.52;;;26.80;54.60;;;;;;5085859;28;20058;-70
2021/08/17 01:35:04;;;;;;;1.65;1.45;;;26.80;54.60;;;;;;5086165;28;20067;-70
2021/08/17 01:37:31;;;;;;;1.17;1.17;;;26.80;54.60;;;;;;5084447;28;20346;-71
2021/08/17 01:40:07;;;;;;;1.35;1.25;;;26.80;55.10;;;;;;5086373;28;20048;-70
2021/08/17 01:42:42;;;;;;;1.88;1.73;;;26.80;54.50;;;;;;5085691;28;20320;-70
2021/08/17 01:45:11;;;;;;;1.50;1.38;;;26.80;54.50;;;;;;5086195;28;20044;-70
2021/08/17 01:47:38;;;;;;;1.38;1.33;;;26.80;54.50;;;;;;5086237;28;20076;-70
2021/08/17 01:50:06;;;;;;;1.60;1.50;;;26.80;54.50;;;;;;5085203;28;20154;-70
2021/08/17 01:52:33;;;;;;;1.50;1.40;;;26.70;54.40;;;;;;5085997;28;20043;-70
2021/08/17 01:55:02;;;;;;;1.42;1.33;;;26.70;54.40;;;;;;5085496;28;20052;-70
2021/08/17 01:57:29;;;;;;;1.30;1.20;;;26.80;54.50;;;;;;5085654;28;20071;-70
2021/08/17 01:59:56;;;;;;;1.70;1.60;;;26.70;54.40;;;;;;5085438;28;20102;-70
2021/08/17 02:02:23;;;;;;;1.30;1.20;;;26.70;54.40;;;;;;5085802;28;20051;-70
2021/08/17 02:04:50;;;;;;;1.65;1.55;;;26.70;54.40;;;;;;5086123;28;20052;-70
2021/08/17 02:07:17;;;;;;;2.08;1.67;;;26.70;54.40;;;;;;5085880;28;20664;-70
2021/08/17 02:09:44;;;;;;;1.42;1.33;;;26.70;54.30;;;;;;5084929;28;20048;-70
2021/08/17 02:12:11;;;;;;;2.00;1.52;;;26.70;54.30;;;;;;5084129;28;20572;-70
2021/08/17 02:14:39;;;;;;;1.45;1.35;;;26.70;54.30;;;;;;5085007;28;20488;-70
2021/08/17 02:17:06;;;;;;;1.60;1.50;;;26.70;54.20;;;;;;5086158;28;20066;-70
2021/08/17 02:19:33;;;;;;;2.17;2.00;;;26.70;54.20;;;;;;5085607;28;20123;-70
2021/08/17 02:22:00;;;;;;;1.52;1.42;;;26.70;54.10;;;;;;5085665;28;20554;-70
2021/08/17 02:24:27;;;;;;;1.42;1.33;;;26.70;54.20;;;;;;5085344;28;20036;-70
2021/08/17 02:26:54;;;;;;;1.02;1.02;;;26.60;54.00;;;;;;5085318;28;20048;-70
2021/08/17 02:29:22;;;;;;;1.40;1.30;;;26.70;54.10;;;;;;5085158;28;20591;-70
2021/08/17 02:31:49;;;;;;;1.38;1.27;;;26.70;54.10;;;;;;5084726;28;20048;-70
2021/08/17 02:34:16;;;;;;;1.02;1.02;;;26.70;54.20;;;;;;5085805;28;20075;-70
2021/08/17 02:36:43;;;;;;;1.50;1.40;;;26.70;54.10;;;;;;5085048;28;20123;-70
2021/08/17 02:39:11;;;;;;;2.05;1.30;;;26.70;54.10;;;;;;5085616;28;20132;-70
2021/08/17 02:41:38;;;;;;;2.63;1.38;;;26.70;54.10;;;;;;5085708;28;20131;-70
2021/08/17 02:44:05;;;;;;;1.42;1.30;;;26.70;54.10;;;;;;5088284;28;20087;-70
2021/08/17 02:46:32;;;;;;;1.27;1.17;;;26.70;54.10;;;;;;5089091;28;20124;-70
2021/08/17 02:48:59;;;;;;;1.48;1.38;;;26.60;54.00;;;;;;5069257;28;20136;-70
2021/08/17 02:51:26;;;;;;;1.10;1.10;;;26.70;54.00;;;;;;5068409;28;20408;-70
2021/08/17 02:53:53;;;;;;;1.70;1.35;;;26.70;53.90;;;;;;5068617;28;20051;-70
2021/08/17 02:56:20;;;;;;;1.52;1.42;;;26.60;53.80;;;;;;5068420;28;20135;-70
2021/08/17 02:58:48;;;;;;;1.50;1.40;;;26.70;53.90;;;;;;5068541;28;20044;-70
2021/08/17 03:01:15;;;;;;;1.30;1.20;;;26.70;53.90;;;;;;5068042;28;20140;-70
2021/08/17 03:03:42;;;;;;;1.02;1.02;;;26.70;53.90;;;;;;5068669;28;20083;-70
2021/08/17 03:06:09;;;;;;;1.30;1.10;;;26.70;53.90;;;;;;5067709;28;20044;-70
2021/08/17 03:08:36;;;;;;;1.42;1.33;;;26.70;54.00;;;;;;5068410;28;20059;-70
2021/08/17 03:11:05;;;;;;;0.98;0.90;;;26.60;53.90;;;;;;5067939;28;20041;-71
2021/08/17 03:13:32;;;;;;;1.48;1.45;;;26.70;54.00;;;;;;5068454;28;20084;-70
2021/08/17 03:15:59;;;;;;;1.05;1.05;;;26.70;54.00;;;;;;5068899;28;20041;-70
2021/08/17 03:18:26;;;;;;;1.20;1.00;;;26.60;53.90;;;;;;5067949;28;20048;-70
2021/08/17 03:20:54;;;;;;;0.82;0.82;;;26.60;53.90;;;;;;5067001;28;20054;-70
2021/08/17 03:23:21;;;;;;;1.52;1.25;;;26.60;53.90;;;;;;5067791;28;20272;-70
2021/08/17 03:25:48;;;;;;;1.52;1.42;;;26.70;54.00;;;;;;5067831;28;20040;-70
2021/08/17 03:28:15;;;;;;;0.98;0.98;;;26.70;54.00;;;;;;5068296;28;20049;-70
2021/08/17 03:30:43;;;;;;;1.27;1.17;;;26.60;53.80;;;;;;5068080;28;20044;-70
2021/08/17 03:33:10;;;;;;;1.00;1.00;;;26.60;53.90;;;;;;5067850;28;20155;-70
2021/08/17 03:35:37;;;;;;;2.53;1.10;;;26.60;53.80;;;;;;5067983;28;20408;-70
2021/08/17 03:38:04;;;;;;;1.40;1.27;;;26.60;53.80;;;;;;5067858;28;20052;-71
2021/08/17 03:40:31;;;;;;;1.00;1.00;;;26.60;53.80;;;;;;5067562;28;20571;-70
2021/08/17 03:42:58;;;;;;;0.98;0.93;;;26.60;53.70;;;;;;5068429;28;20084;-70
2021/08/17 03:45:25;;;;;;;1.30;1.20;;;26.60;53.70;;;;;;5067560;28;20040;-70
2021/08/17 03:47:52;;;;;;;1.85;1.35;;;26.60;53.70;;;;;;5067481;28;20136;-70
2021/08/17 03:50:21;;;;;;;1.70;0.98;;;26.60;53.60;;;;;;5066861;28;20074;-70
2021/08/17 03:52:48;;;;;;;1.17;1.15;;;26.60;53.60;;;;;;5067946;28;20562;-70
2021/08/17 03:55:19;;;;;;;0.85;0.85;;;26.60;53.50;;;;;;5067520;28;20075;-70
2021/08/17 03:57:47;;;;;;;1.27;1.17;;;26.60;53.50;;;;;;5067300;28;20137;-70
2021/08/17 04:00:18;;;;;;;1.00;1.00;;;26.60;53.60;;;;;;5067387;28;20054;-70
2021/08/17 04:02:45;;;;;;;1.20;1.10;;;26.60;53.50;;;;;;5067632;28;20048;-70
2021/08/17 04:05:15;;;;;;;1.92;1.45;;;26.60;53.50;;;;;;5050156;28;20491;-70
2021/08/17 04:07:42;;;;;;;1.20;1.10;;;26.50;53.50;;;;;;5067533;28;20049;-70
2021/08/17 04:10:10;;;;;;;1.05;1.05;;;26.60;53.50;;;;;;5067190;28;20041;-71
2021/08/17 04:12:37;;;;;;;1.00;1.00;;;26.60;53.60;;;;;;5067284;28;20052;-70
2021/08/17 04:15:06;;;;;;;1.55;1.20;;;26.60;53.50;;;;;;5066653;28;20119;-70
2021/08/17 04:17:34;;;;;;;0.80;0.80;;;26.60;53.50;;;;;;5067482;28;20127;-70
2021/08/17 04:20:03;;;;;;;1.17;1.00;;;26.60;53.50;;;;;;5066140;28;20076;-70
2021/08/17 04:22:30;;;;;;;1.00;1.00;;;26.60;53.50;;;;;;5067420;28;20127;-70
2021/08/17 04:24:57;;;;;;;1.23;1.20;;;26.60;53.50;;;;;;5067981;28;20058;-70
2021/08/17 04:27:24;;;;;;;1.42;1.33;;;26.60;53.40;;;;;;5067911;28;20094;-70
2021/08/17 04:29:51;;;;;;;0.95;0.88;;;26.60;53.40;;;;;;5049676;28;20337;-70
2021/08/17 04:32:18;;;;;;;2.45;1.13;;;26.70;53.50;;;;;;5066268;28;20131;-70
2021/08/17 04:34:45;;;;;;;1.13;1.08;;;26.70;53.40;;;;;;5067507;28;20131;-70
2021/08/17 04:37:12;;;;;;;0.85;0.85;;;26.60;53.30;;;;;;5058972;28;20130;-70
2021/08/17 04:39:41;;;;;;;0.80;0.80;;;26.70;53.40;;;;;;5063569;28;20052;-71
2021/08/17 04:42:08;;;;;;;1.10;1.00;;;26.60;53.20;;;;;;5041316;28;20041;-70
2021/08/17 04:44:35;;;;;;;1.27;1.17;;;26.60;53.20;;;;;;5055763;28;20076;-70
2021/08/17 04:47:03;;;;;;;3.88;1.30;;;26.60;53.20;;;;;;5063604;28;20134;-70
2021/08/17 04:49:30;;;;;;;1.52;1.40;;;26.60;53.20;;;;;;5066886;28;20127;-71
2021/08/17 04:51:57;;;;;;;1.88;1.35;;;26.60;53.20;;;;;;5063825;28;20052;-71
2021/08/17 04:54:24;;;;;;;0.80;0.80;;;26.60;53.20;;;;;;5060291;28;20129;-71
2021/08/17 04:56:52;;;;;;;1.10;1.00;;;26.60;53.30;;;;;;5049327;28;20141;-71
2021/08/17 04:59:19;;;;;;;1.42;1.13;;;26.60;53.30;;;;;;5056435;28;20044;-71
2021/08/17 05:01:48;;;;;;;1.13;0.98;;;26.60;53.30;;;;;;5059379;28;20699;-71
2021/08/17 05:04:16;;;;;;;1.08;1.08;;;26.60;53.20;;;;;;5057508;28;20386;-71
2021/08/17 05:06:43;;;;;;;1.42;1.33;;;26.60;53.20;;;;;;5059423;28;20047;-70
2021/08/17 05:09:10;;;;;;;1.40;1.08;;;26.50;53.30;;;;;;5058866;28;20128;-70
2021/08/17 05:11:37;;;;;;;1.50;1.30;;;26.40;53.30;;;;;;5053719;28;20072;-70
2021/08/17 05:14:06;;;;;;;1.27;1.17;;;26.40;53.50;;;;;;5056833;28;20063;-75
2021/08/17 05:16:35;;;;;;;8.07;1.75;;;26.30;53.80;;;;;;5056942;28;20044;-73
2021/08/17 05:19:02;;;;;;;4.68;1.77;;;26.10;53.30;;;;;;5060492;28;20045;-73
2021/08/17 05:21:29;;;;;;;3.75;1.85;;;26.00;53.10;;;;;;5058796;28;20041;-72
2021/08/17 05:23:56;;;;;;;4.15;1.95;;;25.70;53.40;;;;;;5055527;28;20399;-72
2021/08/17 05:26:24;;;;;;;6.70;1.98;;;25.50;53.90;;;;;;5057266;28;20463;-72
2021/08/17 05:28:53;;;;;;;3.00;1.70;;;25.10;55.00;;;;;;5056949;28;20335;-73
2021/08/17 05:31:20;;;;;;;6.53;1.83;;;24.80;56.10;;;;;;5053059;28;20055;-71
2021/08/17 05:33:47;;;;;;;2.63;1.52;;;24.60;56.80;;;;;;5056079;28;20057;-71
2021/08/17 05:36:14;;;;;;;3.33;1.58;;;24.40;57.40;;;;;;5052228;28;20037;-74
2021/08/17 05:38:41;;;;;;;4.70;1.67;;;24.30;57.70;;;;;;5049281;28;20485;-74
2021/08/17 05:41:08;;;;;;;2.53;1.45;;;24.10;57.60;;;;;;5050659;28;20045;-75
2021/08/17 05:43:36;;;;;;;3.25;1.95;;;24.00;57.90;;;;;;5052867;28;20467;-74
2021/08/17 05:46:05;;;;;;;3.13;1.70;;;23.90;58.00;;;;;;5053763;28;20048;-74
2021/08/17 05:48:38;;;;;;;4.05;1.60;;;23.80;58.00;;;;;;5051281;28;20052;-73
2021/08/17 05:51:05;;;;;;;6.00;2.33;;;23.80;58.30;;;;;;5055749;28;20481;-73
2021/08/17 05:53:32;;;;;;;3.85;1.95;;;23.70;58.50;;;;;;5057737;28;20484;-73
2021/08/17 05:55:59;;;;;;;3.10;1.92;;;23.60;58.50;;;;;;5055266;28;20124;-72
2021/08/17 05:58:27;;;;;;;3.47;1.75;;;23.60;58.70;;;;;;5057396;28;20083;-73
2021/08/17 06:00:54;;;;;;;6.40;1.85;;;23.60;58.60;;;;;;5052268;28;20111;-73
2021/08/17 06:03:22;;;;;;;4.40;1.65;;;23.50;58.60;;;;;;5054326;28;20144;-72
2021/08/17 06:05:49;;;;;;;5.30;2.00;;;23.40;59.20;;;;;;5046055;28;20063;-72
2021/08/17 06:08:16;;;;;;;4.00;1.80;;;23.20;60.20;;;;;;5053484;28;20044;-73
2021/08/17 06:10:43;;;;;;;3.58;2.10;;;23.20;60.00;;;;;;5055697;28;20564;-73
2021/08/17 06:13:10;;;;;;;3.25;1.92;;;23.10;60.20;;;;;;5053424;28;20565;-71
2021/08/17 06:19:18;;;;;;;3.30;2.25;;;22.90;60.80;;;;;;5056472;28;20056;-72
2021/08/17 06:21:46;;;;;;;6.25;1.90;;;22.80;61.40;;;;;;5055703;28;20478;-71
2021/08/17 06:24:13;;;;;;;3.50;1.80;;;22.80;60.60;;;;;;5052376;28;20052;-69
2021/08/17 06:26:40;;;;;;;5.63;1.92;;;22.70;60.70;;;;;;5054110;28;20072;-69
2021/08/17 06:29:07;;;;;;;3.55;2.00;;;22.60;60.50;;;;;;5060494;28;20123;-69
2021/08/17 06:31:35;;;;;;;5.47;2.42;;;22.50;60.80;;;;;;5059088;28;20079;-69
2021/08/17 06:34:03;;;;;;;4.18;1.85;;;22.40;61.20;;;;;;5054074;28;20408;-69
2021/08/17 06:36:30;;;;;;;2.95;1.95;;;22.30;61.80;;;;;;5058175;28;20063;-69
2021/08/17 06:39:06;;;;;;;3.33;2.33;;;22.10;61.60;;;;;;5054566;28;20045;-69
2021/08/17 06:41:34;;;;;;;3.90;1.73;;;22.00;61.70;;;;;;5058691;28;20047;-69
2021/08/17 06:44:02;;;;;;;3.35;1.60;;;22.00;61.40;;;;;;5061392;28;20091;-67
2021/08/17 06:46:29;;;;;;;2.88;1.73;;;21.80;61.60;;;;;;5054233;28;20139;-68
2021/08/17 06:48:57;;;;;;;2.05;1.30;;;21.80;61.90;;;;;;5055665;28;20045;-68
2021/08/17 06:51:24;;;;;;;2.15;1.63;;;21.70;61.90;;;;;;5056316;28;20045;-67
2021/08/17 06:53:52;;;;;;;2.13;1.60;;;21.60;61.60;;;;;;5057373;28;20052;-67
2021/08/17 06:56:19;;;;;;;3.50;1.45;;;21.60;61.70;;;;;;5064193;28;20099;-65
2021/08/17 06:58:47;;;;;;;4.10;1.60;;;21.50;62.10;;;;;;5055823;28;20057;-72
2021/08/17 07:01:15;;;;;;;2.65;1.30;;;21.40;62.40;;;;;;5055988;28;20040;-73
2021/08/17 07:03:42;;;;;;;3.00;1.80;;;21.30;62.70;;;;;;5055095;28;20049;-67
2021/08/17 07:06:10;;;;;;;2.13;1.67;;;21.30;62.80;;;;;;5057024;28;20045;-73
2021/08/17 07:08:40;;;;;;;1.60;1.30;;;21.20;62.70;;;;;;5058306;28;20052;-68
2021/08/17 07:11:08;;;;;;;2.17;1.75;;;21.20;62.60;;;;;;5054156;28;20114;-65
2021/08/17 07:13:35;;;;;;;2.28;1.52;;;21.20;62.50;;;;;;5059595;28;20071;-66
2021/08/17 07:16:03;;;;;;;2.05;1.45;;;21.20;62.60;;;;;;5060983;28;20069;-69
2021/08/17 07:18:30;;;;;;;3.70;1.17;;;21.20;62.50;;;;;;5058177;28;20135;-68
2021/08/17 07:20:57;;;;;;;3.80;1.20;;;21.10;62.80;;;;;;5053557;28;20143;-69
2021/08/17 07:23:24;;;;;;;2.60;1.13;;;21.00;62.80;;;;;;5060955;28;20068;-69
2021/08/17 07:25:52;;;;;;;3.28;1.10;;;21.00;63.10;;;;;;5060004;28;20106;-69
2021/08/17 07:28:20;;;;;;;4.25;0.93;;;21.00;63.10;;;;;;5056781;28;20154;-69
2021/08/17 07:30:47;;;;;;;1.85;1.20;;;21.00;63.10;;;;;;5060255;28;20059;-69
2021/08/17 07:33:15;;;;;;;1.60;1.05;;;20.90;63.20;;;;;;5062634;28;20102;-68
2021/08/17 07:35:42;;;;;;;1.45;1.17;;;20.80;63.30;;;;;;5062195;28;20087;-69
2021/08/17 07:38:09;;;;;;;2.83;1.15;;;20.80;63.60;;;;;;5058714;28;20132;-69
2021/08/17 07:40:36;;;;;;;1.15;1.00;;;20.80;63.70;;;;;;5058271;28;20127;-68
2021/08/17 07:43:04;;;;;;;1.65;1.02;;;20.80;64.00;;;;;;5056233;28;20041;-69
2021/08/17 07:45:31;;;;;;;1.48;0.95;;;20.80;63.90;;;;;;5055712;28;20565;-69
2021/08/17 07:48:18;;;;;;;3.70;1.48;;;20.80;63.80;;;;;;5054815;28;20652;-67
2021/08/17 07:50:45;;;;;;;3.53;0.98;;;20.80;63.60;;;;;;5056069;28;20553;-71
2021/08/17 07:53:13;;;;;;;1.10;0.70;;;20.80;63.50;;;;;;5057875;28;20067;-70
2021/08/17 07:55:40;;;;;;;1.85;1.05;;;20.80;63.60;;;;;;5058287;28;20049;-70
2021/08/17 07:58:07;;;;;;;2.33;0.95;;;20.80;63.80;;;;;;5053629;28;20127;-71
2021/08/17 08:00:34;;;;;;;1.25;0.88;;;20.80;63.70;;;;;;5051166;28;20055;-70
2021/08/17 08:03:02;;;;;;;1.63;1.00;;;20.80;63.70;;;;;;5054441;28;20099;-66
2021/08/17 08:05:29;;;;;;;1.35;0.95;;;20.90;63.80;;;;;;5054017;28;20044;-67
2021/08/17 08:07:56;;;;;;;1.42;1.10;;;20.90;63.90;;;;;;5044387;28;20049;-67
2021/08/17 08:10:23;;;;;;;0.63;0.60;;;21.00;63.80;;;;;;5054495;28;20048;-67
2021/08/17 08:12:50;;;;;;;3.17;0.73;;;21.10;63.40;;;;;;5058351;28;20508;-73
2021/08/17 08:15:19;;;;;;;1.67;0.93;;;21.20;63.10;;;;;;5053265;28;20048;-71
2021/08/17 08:17:46;;;;;;;0.98;0.75;;;21.30;63.00;;;;;;5053034;28;20044;-69
2021/08/17 08:20:15;;;;;;;0.63;0.57;;;21.40;62.90;;;;;;5055797;28;20072;-67
2021/08/17 08:22:43;;;;;;;1.70;0.70;;;21.40;62.50;;;;;;5054925;28;20088;-71
2021/08/17 08:25:10;;;;;;;1.20;0.90;;;21.50;62.30;;;;;;5051347;28;20136;-65
2021/08/17 08:27:39;;;;;;;2.78;0.80;;;21.60;62.10;;;;;;5065312;28;20036;-70
2021/08/17 08:30:06;;;;;;;2.17;1.05;;;21.70;61.80;;;;;;5056629;28;20067;-68
2021/08/17 08:32:34;;;;;;;3.33;1.00;;;21.70;61.70;;;;;;5056825;28;20482;-72
2021/08/17 08:35:04;;;;;;;1.65;0.80;;;21.70;61.80;;;;;;5062503;28;20045;-74
2021/08/17 08:37:31;;;;;;;1.05;0.88;;;21.80;61.40;;;;;;5050365;28;20048;-72
2021/08/17 08:39:58;;;;;;;1.40;0.68;;;21.80;61.00;;;;;;5053940;28;20049;-73
2021/08/17 08:42:27;;;;;;;1.55;0.75;;;21.90;61.30;;;;;;5056802;28;20397;-64
2021/08/17 08:44:55;;;;;;;0.93;0.47;;;21.90;60.60;;;;;;5054786;28;20079;-70
2021/08/17 08:47:22;;;;;;;1.60;0.57;;;21.90;60.20;;;;;;5050499;28;20036;-71
2021/08/17 08:49:52;;;;;;;1.17;0.65;;;21.90;60.40;;;;;;5056854;28;20047;-70
2021/08/17 08:52:22;;;;;;;0.50;0.50;;;21.90;60.20;;;;;;5054244;28;20056;-73
2021/08/17 08:54:49;;;;;;;3.20;1.23;;;21.90;59.70;;;;;;5055913;28;20040;-71
2021/08/17 08:57:16;;;;;;;0.98;0.88;;;22.00;59.40;;;;;;5056950;28;20056;-71
2021/08/17 08:59:44;;;;;;;0.77;0.40;;;22.00;59.50;;;;;;5052454;28;20055;-71
2021/08/17 09:02:14;;;;;;;1.63;0.50;;;22.00;59.30;;;;;;5058127;28;20044;-72
2021/08/17 09:04:52;;;;;;;1.10;0.60;;;22.00;58.90;;;;;;5054235;28;20040;-71
2021/08/17 09:07:46;;;;;;;1.17;0.50;;;22.00;58.70;;;;;;5055296;28;20043;-71
2021/08/17 09:10:16;;;;;;;0.40;0.40;;;22.10;58.30;;;;;;5055927;28;20075;-70
2021/08/17 09:12:46;;;;;;;0.47;0.43;;;22.10;58.00;;;;;;5053144;28;20040;-69
2021/08/17 09:15:26;;;;;;;0.75;0.52;;;22.10;58.20;;;;;;5054387;28;20116;-70
2021/08/17 09:18:12;;;;;;;0.47;0.40;;;22.10;58.30;;;;;;5051284;28;20063;-71
2021/08/17 09:20:44;;;;;;;0.40;0.40;;;22.10;58.10;;;;;;5054893;28;20127;-72
2021/08/17 09:23:29;;;;;;;0.50;0.40;;;22.10;58.10;;;;;;5053165;28;20048;-69
2021/08/17 09:25:58;;;;;;;0.30;0.30;;;22.10;58.50;;;;;;5052083;28;20064;-70
2021/08/17 09:28:35;;;;;;;1.63;0.20;;;22.10;58.50;;;;;;5058190;28;20051;-68
2021/08/17 09:31:31;;;;;;;0.35;0.30;;;22.10;59.10;;;;;;5056157;28;20438;-68
2021/08/17 09:33:58;;;;;;;0.70;0.43;;;22.10;58.70;;;;;;5055985;28;20143;-64
2021/08/17 09:36:35;;;;;;;0.77;0.30;;;22.20;58.60;;;;;;5057596;28;20127;-67
2021/08/17 09:39:03;;;;;;;0.32;0.20;;;22.20;58.40;;;;;;5053655;28;20045;-67
2021/08/17 09:41:31;;;;;;;0.52;0.38;;;22.30;58.30;;;;;;5054278;28;20088;-67
2021/08/17 09:44:02;;;;;;;1.80;0.55;;;22.30;58.20;;;;;;5057052;28;20049;-67
2021/08/17 09:46:33;;;;;;;1.10;0.43;;;22.30;57.90;;;;;;5051169;28;20132;-67
2021/08/17 09:49:26;;;;;;;0.98;0.50;;;22.30;57.90;;;;;;5050104;28;20076;-67
2021/08/17 09:51:55;;;;;;;1.35;0.20;;;22.40;58.10;;;;;;5058799;28;20103;-68
2021/08/17 09:54:24;;;;;;;0.50;0.40;;;22.40;57.90;;;;;;5051161;28;20052;-67
2021/08/17 09:57:00;;;;;;;0.25;0.10;;;22.40;57.70;;;;;;5056453;28;20482;-63
2021/08/17 09:59:30;;;;;;;0.20;0.20;;;22.40;57.80;;;;;;5053991;28;20621;-70
2021/08/17 10:01:59;;;;;;;0.13;0.13;;;22.40;57.80;;;;;;5052767;28;20136;-70
2021/08/17 10:04:27;;;;;;;0.60;0.20;;;22.40;57.60;;;;;;5056955;28;20178;-68
2021/08/17 10:06:57;;;;;;;1.35;0.55;;;22.40;57.70;;;;;;5058372;28;20045;-69
2021/08/17 10:09:25;;;;;;;0.50;0.30;;;22.40;57.60;;;;;;5055170;28;20135;-69
2021/08/17 10:11:53;;;;;;;0.13;0.13;;;22.40;57.80;;;;;;5051134;28;20365;-69
2021/08/17 10:14:21;;;;;;;0.30;0.20;;;22.40;57.30;;;;;;5054479;28;20052;-68
2021/08/17 10:16:48;;;;;;;0.45;0.40;;;22.40;57.50;;;;;;5054182;28;20503;-69
2021/08/17 10:19:22;;;;;;;0.40;0.15;;;22.40;57.30;;;;;;5060287;28;20151;-69
2021/08/17 10:21:52;;;;;;;0.30;0.25;;;22.40;57.20;;;;;;5055066;28;20053;-69
2021/08/17 10:24:41;;;;;;;0.30;0.20;;;22.40;57.20;;;;;;5053549;28;20053;-69
2021/08/17 10:27:28;;;;;;;0.20;0.20;;;22.40;57.30;;;;;;5057805;28;20446;-69
2021/08/17 10:30:07;;;;;;;0.50;0.30;;;22.40;57.20;;;;;;5050396;28;20049;-69
2021/08/17 10:32:46;;;;;;;0.38;0.20;;;22.40;57.30;;;;;;5051555;28;20048;-69
2021/08/17 10:35:51;;;;;;;0.55;0.47;;;22.40;57.30;;;;;;5052170;28;20080;-70
2021/08/17 10:38:38;;;;;;;0.98;0.20;;;22.40;57.20;;;;;;5054255;28;20076;-69
2021/08/17 10:41:07;;;;;;;0.10;0.10;;;22.40;57.30;;;;;;5058946;28;20059;-71
2021/08/17 10:44:02;;;;;;;0.38;0.10;;;22.40;57.30;;;;;;5054746;28;20131;-69
2021/08/17 10:46:45;;;;;;;0.10;0.10;;;22.40;57.20;;;;;;5052324;28;20133;-70
2021/08/17 10:49:32;;;;;;;0.28;0.20;;;22.40;57.30;;;;;;5056981;28;21371;-72
2021/08/17 10:52:06;;;;;;;1.35;0.32;;;22.40;57.60;;;;;;5051175;28;20051;-69
2021/08/17 10:54:37;;;;;;;0.40;0.30;;;22.40;57.40;;;;;;5061224;28;20053;-69
2021/08/17 10:57:20;;;;;;;0.25;0.22;;;22.40;57.10;;;;;;5051672;28;20057;-69
2021/08/17 10:59:50;;;;;;;0.70;0.40;;;22.40;57.10;;;;;;5051913;28;20175;-70
2021/08/17 11:02:22;;;;;;;0.20;0.20;;;22.40;57.00;;;;;;5052468;28;20049;-67
2021/08/17 11:04:51;;;;;;;0.22;0.20;;;22.40;56.90;;;;;;5058358;28;20048;-68
2021/08/17 11:07:32;;;;;;;0.55;0.55;;;22.40;57.00;;;;;;5049395;28;20482;-69
2021/08/17 11:10:03;;;;;;;0.32;0.32;;;22.40;57.00;;;;;;5054347;28;20052;-70
2021/08/17 11:12:36;;;;;;;0.73;0.40;;;22.40;56.80;;;;;;5058524;28;20497;-73
2021/08/17 11:15:08;;;;;;;1.48;0.22;;;22.40;56.80;;;;;;5059819;28;20088;-66
2021/08/17 11:17:36;;;;;;;0.40;0.20;;;22.50;56.90;;;;;;5059243;28;20037;-69
2021/08/17 11:20:05;;;;;;;0.45;0.20;;;22.50;56.80;;;;;;5048435;28;20904;-68
2021/08/17 11:22:36;;;;;;;1.00;0.40;;;22.50;56.80;;;;;;5046950;28;20179;-69
2021/08/17 11:25:08;;;;;;;3.30;0.47;;;22.50;56.80;;;;;;5056048;28;20464;-69
2021/08/17 11:27:41;;;;;;;2.58;0.20;;;22.50;56.60;;;;;;5052187;28;20040;-67
2021/08/17 11:30:11;;;;;;;0.60;0.30;;;22.40;56.40;;;;;;5056189;28;20687;-70
2021/08/17 11:32:41;;;;;;;1.08;0.30;;;22.50;56.20;;;;;;5053093;28;20049;-70
2021/08/17 11:35:15;;;;;;;0.60;0.10;;;22.50;56.00;;;;;;5055305;28;20104;-69
2021/08/17 11:37:51;;;;;;;1.38;0.20;;;22.50;55.80;;;;;;5059008;28;20513;-69
2021/08/17 11:40:23;;;;;;;1.00;0.68;;;22.50;55.90;;;;;;5053665;28;20139;-69
2021/08/17 11:42:55;;;;;;;0.20;0.20;;;22.50;55.90;;;;;;5048515;28;20048;-67
2021/08/17 11:45:28;;;;;;;0.20;0.20;;;22.50;55.60;;;;;;5049978;28;20370;-70
2021/08/17 11:47:57;;;;;;;0.40;0.20;;;22.40;55.70;;;;;;5050606;28;20500;-69
2021/08/17 11:50:24;;;;;;;0.20;0.10;;;22.40;56.10;;;;;;5058161;28;20032;-70
2021/08/17 11:52:54;;;;;;;0.28;0.20;;;22.40;55.80;;;;;;5053962;28;20123;-68
2021/08/17 11:55:31;;;;;;;1.17;0.20;;;22.40;55.60;;;;;;5058699;28;20143;-67
2021/08/17 11:58:07;;;;;;;0.75;0.38;;;22.40;55.80;;;;;;5047815;28;20286;-68
2021/08/17 12:00:34;;;;;;;0.32;0.30;;;22.50;55.70;;;;;;5056429;28;20166;-68
2021/08/17 12:03:08;;;;;;;0.22;0.20;;;22.40;55.30;;;;;;5053676;28;20786;-69
2021/08/17 12:05:38;;;;;;;0.40;0.20;;;22.40;55.60;;;;;;5056169;28;20241;-68
2021/08/17 12:08:11;;;;;;;0.30;0.22;;;22.40;55.70;;;;;;5057976;28;20496;-68
2021/08/17 12:10:39;;;;;;;0.47;0.17;;;22.40;55.40;;;;;;5055035;28;20482;-67
2021/08/17 12:13:12;;;;;;;2.70;0.30;;;22.50;55.50;;;;;;5063512;28;20041;-67
2021/08/17 12:15:43;;;;;;;0.25;0.10;;;22.50;55.60;;;;;;5056464;28;20095;-68
2021/08/17 12:18:19;;;;;;;0.32;0.25;;;22.50;55.30;;;;;;5057007;28;20136;-67
2021/08/17 12:20:57;;;;;;;0.20;0.20;;;22.50;55.30;;;;;;5054793;28;20045;-67
2021/08/17 12:23:45;;;;;;;0.20;0.17;;;22.50;55.50;;;;;;5057590;28;20050;-67
2021/08/17 12:26:25;;;;;;;2.67;0.65;;;22.50;55.30;;;;;;5055075;28;20063;-66
2021/08/17 12:28:54;;;;;;;1.58;0.80;;;22.50;55.20;;;;;;5054952;28;20075;-68
2021/08/17 12:31:29;;;;;;;0.75;0.20;;;22.50;55.50;;;;;;5056371;28;20484;-66
2021/08/17 12:34:06;;;;;;;2.05;0.28;;;22.60;55.30;;;;;;5057149;28;20111;-68
2021/08/17 12:40:14;;;;;;;0.22;0.20;;;22.70;55.30;;;;;;5054512;28;20409;-71
2021/08/17 12:42:43;;;;;;;0.22;0.22;;;22.70;55.00;;;;;;5050193;28;20418;-67
2021/08/17 12:45:31;;;;;;;0.30;0.20;;;22.70;54.90;;;;;;5054173;28;20509;-68
2021/08/17 12:48:01;;;;;;;0.10;0.10;;;22.80;55.30;;;;;;5055599;28;20068;-68
2021/08/17 12:50:39;;;;;;;0.20;0.20;;;22.80;55.00;;;;;;5061606;28;20100;-67
2021/08/17 12:53:25;;;;;;;0.20;0.13;;;22.90;54.60;;;;;;5050348;28;20131;-69
2021/08/17 12:55:54;;;;;;;0.20;0.20;;;22.90;54.70;;;;;;5053832;28;20040;-68
2021/08/17 12:58:22;;;;;;;0.32;0.25;;;22.90;54.50;;;;;;5055746;28;20074;-71
2021/08/17 13:00:50;;;;;;;0.57;0.50;;;23.00;54.20;;;;;;5055127;28;20563;-70
2021/08/17 13:03:18;;;;;;;0.50;0.20;;;23.00;54.20;;;;;;5053512;28;20044;-68
2021/08/17 13:05:45;;;;;;;0.40;0.35;;;23.00;54.30;;;;;;5051734;28;20053;-69
2021/08/17 13:08:12;;;;;;;4.47;0.35;;;23.10;54.00;;;;;;5059720;28;20074;-69